Time;durP1;ratioP1;P1;durP2;ratioP2;P2;SDS_P1;SDS_P2;PMS_P1;PMS_P2;Temp;Humidity;BMP_temperature;BMP_pressure;BME280_temperature;BME280_humidity;BME280_pressure;Samples;Min_cycle;Max_cycle;Signal;HPM_P1;HPM_P2
2023/08/28 00:01:33;;;;;;;0.70;0.32;;;;;;;;;;5056917;28;20052;-60
2023/08/28 00:03:59;;;;;;;0.20;0.20;;;;;;;;;;5057267;28;20041;-61
2023/08/28 00:06:25;;;;;;;0.10;0.10;;;;;;;;;;5058820;28;20059;-61
2023/08/28 00:08:51;;;;;;;0.10;0.10;;;;;;;;;;5053465;28;20040;-61
2023/08/28 00:11:18;;;;;;;0.38;0.20;;;;;;;;;;5061856;28;20055;-61
2023/08/28 00:13:44;;;;;;;0.20;0.20;;;;;;;;;;5058339;28;20090;-61
2023/08/28 00:16:10;;;;;;;0.20;0.20;;;;;;;;;;5058202;28;20036;-61
2023/08/28 00:18:36;;;;;;;0.22;0.20;;;;;;;;;;5060424;28;20425;-61
2023/08/28 00:21:03;;;;;;;0.10;0.10;;;;;;;;;;5061738;28;20075;-61
2023/08/28 00:23:32;;;;;;;1.58;0.40;;;;;;;;;;5059265;28;20045;-61
2023/08/28 00:25:58;;;;;;;0.30;0.30;;;;;;;;;;5060743;28;20060;-61
2023/08/28 00:28:24;;;;;;;0.47;0.25;;;;;;;;;;5057906;28;20093;-61
2023/08/28 00:30:50;;;;;;;0.22;0.20;;;;;;;;;;5056909;28;20455;-61
2023/08/28 00:33:16;;;;;;;0.20;0.20;;;;;;;;;;5058307;28;20762;-61
2023/08/28 00:35:42;;;;;;;0.30;0.28;;;;;;;;;;5057653;28;20048;-60
2023/08/28 00:38:09;;;;;;;0.30;0.20;;;;;;;;;;5056844;28;20148;-61
2023/08/28 00:40:44;;;;;;;0.60;0.32;;;;;;;;;;5053724;28;20520;-61
2023/08/28 00:43:10;;;;;;;0.17;0.17;;;;;;;;;;5060518;28;20051;-61
2023/08/28 00:45:39;;;;;;;0.20;0.20;;;;;;;;;;5055223;28;20037;-61
2023/08/28 00:48:05;;;;;;;0.20;0.20;;;;;;;;;;5055982;28;20126;-61
2023/08/28 00:50:32;;;;;;;0.20;0.20;;;;;;;;;;5055420;28;20041;-61
2023/08/28 00:52:58;;;;;;;0.20;0.20;;;;;;;;;;5050847;28;20049;-60
2023/08/28 00:55:24;;;;;;;0.10;0.10;;;;;;;;;;5053956;28;20068;-62
2023/08/28 00:57:50;;;;;;;0.10;0.10;;;;;;;;;;5056419;28;20037;-60
2023/08/28 01:00:16;;;;;;;0.10;0.10;;;;;;;;;;5053871;28;20048;-62
2023/08/28 01:02:42;;;;;;;0.20;0.20;;;;;;;;;;5055320;28;20039;-61
2023/08/28 01:05:08;;;;;;;0.10;0.10;;;;;;;;;;5051932;28;20044;-60
2023/08/28 01:07:39;;;;;;;0.20;0.20;;;;;;;;;;5053023;28;20064;-60
2023/08/28 01:10:10;;;;;;;0.10;0.10;;;;;;;;;;5055440;28;20048;-62
2023/08/28 01:12:43;;;;;;;0.10;0.10;;;;;;;;;;5056313;28;20037;-62
2023/08/28 01:15:09;;;;;;;0.10;0.10;;;;;;;;;;5053133;28;20494;-61
2023/08/28 01:17:36;;;;;;;0.00;0.00;;;;;;;;;;5055966;28;20040;-61
2023/08/28 01:20:04;;;;;;;0.10;0.10;;;;;;;;;;5056626;28;20135;-61
2023/08/28 01:22:42;;;;;;;0.32;0.20;;;;;;;;;;5055821;28;20123;-61
2023/08/28 01:25:10;;;;;;;0.52;0.20;;;;;;;;;;5051855;28;20551;-60
2023/08/28 01:27:40;;;;;;;0.25;0.20;;;;;;;;;;5050909;28;20056;-62
2023/08/28 01:30:09;;;;;;;0.20;0.20;;;;;;;;;;5048233;28;20094;-61
2023/08/28 01:32:36;;;;;;;0.10;0.10;;;;;;;;;;5053889;28;20041;-61
2023/08/28 01:35:03;;;;;;;0.10;0.10;;;;;;;;;;5052332;28;20064;-61
2023/08/28 01:37:34;;;;;;;0.63;0.40;;;;;;;;;;5056103;28;20325;-61
2023/08/28 01:40:03;;;;;;;0.30;0.30;;;;;;;;;;5055876;28;20106;-61
2023/08/28 01:42:29;;;;;;;0.20;0.20;;;;;;;;;;5055046;28;20040;-60
2023/08/28 01:44:56;;;;;;;0.30;0.30;;;;;;;;;;5055985;28;20052;-61
2023/08/28 01:47:23;;;;;;;0.20;0.20;;;;;;;;;;5053160;28;20036;-61
2023/08/28 01:49:53;;;;;;;0.17;0.17;;;;;;;;;;5054620;28;20492;-61
2023/08/28 01:52:19;;;;;;;0.60;0.20;;;;;;;;;;5053590;28;20664;-61
2023/08/28 01:54:45;;;;;;;0.10;0.10;;;;;;;;;;5059085;28;20048;-60
2023/08/28 01:57:11;;;;;;;0.20;0.20;;;;;;;;;;5052991;28;20057;-60
2023/08/28 01:59:37;;;;;;;0.20;0.20;;;;;;;;;;5052126;28;20110;-61
2023/08/28 02:02:03;;;;;;;0.10;0.10;;;;;;;;;;5051318;28;20567;-61
2023/08/28 02:04:29;;;;;;;0.20;0.20;;;;;;;;;;5053091;28;20032;-61
2023/08/28 02:06:55;;;;;;;0.10;0.10;;;;;;;;;;5057294;28;20040;-61
2023/08/28 02:09:21;;;;;;;0.10;0.10;;;;;;;;;;5054513;28;20047;-61
2023/08/28 02:11:49;;;;;;;0.13;0.10;;;;;;;;;;5059894;28;20037;-61
2023/08/28 02:14:15;;;;;;;0.10;0.10;;;;;;;;;;5057047;28;20072;-61
2023/08/28 02:16:41;;;;;;;0.10;0.10;;;;;;;;;;5061601;28;20835;-62
2023/08/28 02:19:07;;;;;;;0.10;0.10;;;;;;;;;;5057836;28;20102;-61
2023/08/28 02:21:34;;;;;;;0.25;0.25;;;;;;;;;;5058590;28;20051;-61
2023/08/28 02:24:00;;;;;;;0.20;0.20;;;;;;;;;;5058244;28;20136;-61
2023/08/28 02:26:26;;;;;;;0.20;0.20;;;;;;;;;;5056475;28;20471;-60
2023/08/28 02:28:52;;;;;;;0.10;0.10;;;;;;;;;;5055515;28;20477;-61
2023/08/28 02:31:18;;;;;;;0.20;0.20;;;;;;;;;;5059835;28;20037;-60
2023/08/28 02:33:44;;;;;;;0.17;0.17;;;;;;;;;;5059102;28;20122;-61
2023/08/28 02:36:10;;;;;;;0.20;0.20;;;;;;;;;;5058033;28;20041;-61
2023/08/28 02:38:36;;;;;;;0.70;0.25;;;;;;;;;;5057842;28;20036;-61
2023/08/28 02:41:07;;;;;;;0.10;0.10;;;;;;;;;;5056837;28;20052;-61
2023/08/28 02:43:33;;;;;;;0.10;0.10;;;;;;;;;;5059594;28;20045;-61
2023/08/28 02:45:59;;;;;;;0.75;0.28;;;;;;;;;;5055541;28;20036;-61
2023/08/28 02:48:25;;;;;;;0.20;0.20;;;;;;;;;;5060992;28;20036;-62
2023/08/28 02:50:51;;;;;;;0.20;0.17;;;;;;;;;;5055828;28;21121;-61
2023/08/28 02:53:17;;;;;;;0.17;0.17;;;;;;;;;;5061630;28;20052;-62
2023/08/28 02:56:03;;;;;;;0.10;0.10;;;;;;;;;;5061860;28;20055;-61
2023/08/28 02:58:29;;;;;;;0.20;0.20;;;;;;;;;;5053896;28;20109;-61
2023/08/28 03:00:55;;;;;;;0.20;0.20;;;;;;;;;;5056616;28;20398;-61
2023/08/28 03:03:22;;;;;;;0.20;0.15;;;;;;;;;;5054175;28;21205;-61
2023/08/28 03:05:48;;;;;;;0.20;0.20;;;;;;;;;;5053101;28;20040;-60
2023/08/28 03:08:14;;;;;;;0.10;0.10;;;;;;;;;;5056453;28;20047;-61
2023/08/28 03:10:40;;;;;;;0.40;0.30;;;;;;;;;;5057811;28;20040;-61
2023/08/28 03:13:06;;;;;;;0.10;0.10;;;;;;;;;;5060432;28;20442;-61
2023/08/28 03:15:32;;;;;;;0.20;0.20;;;;;;;;;;5060667;28;20048;-61
2023/08/28 03:17:58;;;;;;;0.10;0.10;;;;;;;;;;5061857;28;20040;-61
2023/08/28 03:20:24;;;;;;;0.30;0.30;;;;;;;;;;5061470;28;20073;-61
2023/08/28 03:22:50;;;;;;;0.13;0.13;;;;;;;;;;5057419;28;20147;-60
2023/08/28 03:25:16;;;;;;;0.20;0.20;;;;;;;;;;5058370;28;20128;-61
2023/08/28 03:27:42;;;;;;;0.17;0.17;;;;;;;;;;5057200;28;20037;-61
2023/08/28 03:30:09;;;;;;;0.20;0.20;;;;;;;;;;5059566;28;20044;-61
2023/08/28 03:32:35;;;;;;;0.20;0.20;;;;;;;;;;5060240;28;20032;-60
2023/08/28 03:35:01;;;;;;;0.40;0.40;;;;;;;;;;5059851;28;20829;-61
2023/08/28 03:37:27;;;;;;;0.20;0.20;;;;;;;;;;5057359;28;20041;-61
2023/08/28 03:39:53;;;;;;;0.22;0.22;;;;;;;;;;5058633;28;20776;-61
2023/08/28 03:42:19;;;;;;;0.22;0.22;;;;;;;;;;5056068;28;20048;-62
2023/08/28 03:44:45;;;;;;;0.10;0.10;;;;;;;;;;5054711;28;20537;-61
2023/08/28 03:47:11;;;;;;;0.20;0.20;;;;;;;;;;5056473;28;20044;-61
2023/08/28 03:49:37;;;;;;;0.30;0.30;;;;;;;;;;5055430;28;20052;-61
2023/08/28 03:52:03;;;;;;;0.20;0.20;;;;;;;;;;5054488;28;20405;-60
2023/08/28 03:54:29;;;;;;;0.10;0.10;;;;;;;;;;5056797;28;20574;-61
2023/08/28 03:56:55;;;;;;;0.20;0.20;;;;;;;;;;5059738;28;20048;-61
2023/08/28 03:59:21;;;;;;;0.10;0.10;;;;;;;;;;5056285;28;20055;-61
2023/08/28 04:01:48;;;;;;;0.22;0.22;;;;;;;;;;5057556;28;20041;-60
2023/08/28 04:04:14;;;;;;;0.20;0.20;;;;;;;;;;5057275;28;20041;-61
2023/08/28 04:06:40;;;;;;;0.38;0.20;;;;;;;;;;5054158;28;20059;-60
2023/08/28 04:09:06;;;;;;;0.30;0.30;;;;;;;;;;5056010;28;20041;-61
2023/08/28 04:11:32;;;;;;;0.28;0.28;;;;;;;;;;5057818;28;20041;-61
2023/08/28 04:13:58;;;;;;;0.20;0.13;;;;;;;;;;5057877;28;20070;-61
2023/08/28 04:16:24;;;;;;;0.20;0.20;;;;;;;;;;5058104;28;20071;-61
2023/08/28 04:18:50;;;;;;;0.77;0.28;;;;;;;;;;5057961;28;20036;-61
2023/08/28 04:21:16;;;;;;;0.25;0.25;;;;;;;;;;5056953;28;20048;-61
2023/08/28 04:23:42;;;;;;;0.30;0.30;;;;;;;;;;5057584;28;20049;-61
2023/08/28 04:26:08;;;;;;;0.47;0.20;;;;;;;;;;5058314;28;20590;-61
2023/08/28 04:28:34;;;;;;;0.30;0.30;;;;;;;;;;5055606;28;20091;-61
2023/08/28 04:31:00;;;;;;;0.20;0.20;;;;;;;;;;5058107;28;20041;-60
2023/08/28 04:33:26;;;;;;;0.20;0.20;;;;;;;;;;5056027;28;20439;-61
2023/08/28 04:35:52;;;;;;;0.20;0.15;;;;;;;;;;5057105;28;20589;-61
2023/08/28 04:38:18;;;;;;;0.20;0.20;;;;;;;;;;5058405;28;20044;-61
2023/08/28 04:40:44;;;;;;;0.20;0.20;;;;;;;;;;5054862;28;20401;-61
2023/08/28 04:43:10;;;;;;;0.10;0.10;;;;;;;;;;5055687;28;20468;-61
2023/08/28 04:45:36;;;;;;;0.10;0.10;;;;;;;;;;5053953;28;20037;-61
2023/08/28 04:48:03;;;;;;;0.10;0.10;;;;;;;;;;5059226;28;20053;-61
2023/08/28 04:50:29;;;;;;;0.10;0.10;;;;;;;;;;5056325;28;20766;-61
2023/08/28 04:52:54;;;;;;;0.00;0.00;;;;;;;;;;5058312;28;20068;-61
2023/08/28 04:55:21;;;;;;;0.10;0.10;;;;;;;;;;5057504;28;20332;-60
2023/08/28 04:57:47;;;;;;;0.10;0.10;;;;;;;;;;5050715;28;20072;-62
2023/08/28 05:00:13;;;;;;;0.10;0.10;;;;;;;;;;5055765;28;20515;-61
2023/08/28 05:02:39;;;;;;;0.57;0.15;;;;;;;;;;5055548;28;20127;-61
2023/08/28 05:05:05;;;;;;;0.35;0.35;;;;;;;;;;5056325;28;20215;-61
2023/08/28 05:07:31;;;;;;;0.30;0.30;;;;;;;;;;5053804;28;20040;-60
2023/08/28 05:09:57;;;;;;;0.20;0.20;;;;;;;;;;5056438;28;20041;-60
2023/08/28 05:12:23;;;;;;;1.05;0.20;;;;;;;;;;5055315;28;20058;-60
2023/08/28 05:14:49;;;;;;;0.13;0.13;;;;;;;;;;5062488;28;20416;-60
2023/08/28 05:17:15;;;;;;;0.40;0.40;;;;;;;;;;5055501;28;20079;-60
2023/08/28 05:19:41;;;;;;;0.20;0.20;;;;;;;;;;5058546;28;20040;-62
2023/08/28 05:22:07;;;;;;;0.35;0.28;;;;;;;;;;5049992;28;20593;-60
2023/08/28 05:24:33;;;;;;;0.28;0.28;;;;;;;;;;5058033;28;20044;-61
2023/08/28 05:26:59;;;;;;;0.22;0.22;;;;;;;;;;5054569;28;20087;-61
2023/08/28 05:29:25;;;;;;;0.20;0.20;;;;;;;;;;5054516;28;20452;-61
2023/08/28 05:31:51;;;;;;;0.20;0.20;;;;;;;;;;5053256;28;20119;-61
2023/08/28 05:34:17;;;;;;;0.20;0.20;;;;;;;;;;5059096;28;20040;-61
2023/08/28 05:36:43;;;;;;;0.15;0.15;;;;;;;;;;5057999;28;20680;-61
2023/08/28 05:39:09;;;;;;;0.20;0.20;;;;;;;;;;5057490;28;20044;-61
2023/08/28 05:41:35;;;;;;;0.40;0.40;;;;;;;;;;5053595;28;20068;-61
2023/08/28 05:44:01;;;;;;;0.20;0.20;;;;;;;;;;5054440;28;20079;-61
2023/08/28 05:46:27;;;;;;;0.20;0.20;;;;;;;;;;5054199;28;20037;-61
2023/08/28 05:48:53;;;;;;;0.45;0.20;;;;;;;;;;5057098;28;20374;-60
2023/08/28 05:51:19;;;;;;;0.30;0.30;;;;;;;;;;5053047;28;20444;-60
2023/08/28 05:53:46;;;;;;;0.35;0.20;;;;;;;;;;5054803;28;20123;-61
2023/08/28 05:56:12;;;;;;;0.17;0.17;;;;;;;;;;5058055;28;20059;-61
2023/08/28 05:58:38;;;;;;;0.28;0.20;;;;;;;;;;5053470;28;20063;-61
2023/08/28 06:01:04;;;;;;;0.30;0.30;;;;;;;;;;5048830;28;20487;-62
2023/08/28 06:03:30;;;;;;;0.28;0.15;;;;;;;;;;5053425;28;20033;-61
2023/08/28 06:05:56;;;;;;;0.17;0.17;;;;;;;;;;5055544;28;20066;-61
2023/08/28 06:08:22;;;;;;;0.30;0.20;;;;;;;;;;5051472;28;20044;-61
2023/08/28 06:10:48;;;;;;;0.20;0.20;;;;;;;;;;5059518;28;20043;-62
2023/08/28 06:13:15;;;;;;;0.10;0.10;;;;;;;;;;5056505;28;20040;-60
2023/08/28 06:15:41;;;;;;;0.10;0.10;;;;;;;;;;5056191;28;20118;-61
2023/08/28 06:18:07;;;;;;;0.30;0.30;;;;;;;;;;5053893;28;20595;-61
2023/08/28 06:20:35;;;;;;;0.20;0.20;;;;;;;;;;5055949;28;20041;-61
2023/08/28 06:23:01;;;;;;;0.08;0.08;;;;;;;;;;5054572;28;20047;-61
2023/08/28 06:25:27;;;;;;;0.10;0.10;;;;;;;;;;5059239;28;20082;-61
2023/08/28 06:27:53;;;;;;;0.10;0.10;;;;;;;;;;5059481;28;20448;-60
2023/08/28 06:30:19;;;;;;;0.45;0.20;;;;;;;;;;5055051;28;20041;-61
2023/08/28 06:32:46;;;;;;;0.50;0.22;;;;;;;;;;5058158;28;20044;-61
2023/08/28 06:35:12;;;;;;;0.10;0.10;;;;;;;;;;5053278;28;20052;-61
2023/08/28 06:37:38;;;;;;;0.20;0.20;;;;;;;;;;5048402;28;20048;-62
2023/08/28 06:40:04;;;;;;;0.10;0.10;;;;;;;;;;5055822;28;20151;-61
2023/08/28 06:42:30;;;;;;;0.52;0.10;;;;;;;;;;5054977;28;20048;-61
2023/08/28 06:44:56;;;;;;;0.10;0.10;;;;;;;;;;5053100;28;20041;-61
2023/08/28 06:47:22;;;;;;;0.10;0.10;;;;;;;;;;5056693;28;20127;-61
2023/08/28 06:49:48;;;;;;;0.13;0.13;;;;;;;;;;5054855;28;20116;-62
2023/08/28 06:52:14;;;;;;;0.30;0.20;;;;;;;;;;5053836;28;20127;-61
2023/08/28 06:54:40;;;;;;;0.20;0.20;;;;;;;;;;5055650;28;20053;-61
2023/08/28 06:57:06;;;;;;;0.20;0.20;;;;;;;;;;5055558;28;20048;-61
2023/08/28 06:59:32;;;;;;;0.20;0.20;;;;;;;;;;5059546;28;20401;-61
2023/08/28 07:01:58;;;;;;;0.30;0.30;;;;;;;;;;5060534;28;20033;-61
2023/08/28 07:04:24;;;;;;;1.08;0.20;;;;;;;;;;5054347;28;20048;-61
2023/08/28 07:06:51;;;;;;;0.20;0.13;;;;;;;;;;5053650;28;20712;-61
2023/08/28 07:09:17;;;;;;;0.13;0.10;;;;;;;;;;5056520;28;20136;-61
2023/08/28 07:11:43;;;;;;;0.10;0.10;;;;;;;;;;5056797;28;20116;-61
2023/08/28 07:14:09;;;;;;;0.30;0.30;;;;;;;;;;5059717;28;20040;-61
2023/08/28 07:16:35;;;;;;;0.20;0.20;;;;;;;;;;5051738;28;20043;-61
2023/08/28 07:19:01;;;;;;;0.30;0.30;;;;;;;;;;5058142;28;20025;-60
2023/08/28 07:21:27;;;;;;;0.20;0.20;;;;;;;;;;5057500;28;20163;-61
2023/08/28 07:23:53;;;;;;;0.10;0.10;;;;;;;;;;5051374;28;20045;-61
2023/08/28 07:26:19;;;;;;;0.28;0.10;;;;;;;;;;5054691;28;20131;-61
2023/08/28 07:28:48;;;;;;;0.10;0.10;;;;;;;;;;5061860;28;20480;-61
2023/08/28 07:31:15;;;;;;;0.20;0.20;;;;;;;;;;5056230;28;20141;-61
2023/08/28 07:33:41;;;;;;;0.15;0.15;;;;;;;;;;5055852;28;20047;-61
2023/08/28 07:36:07;;;;;;;0.20;0.10;;;;;;;;;;5054671;28;20126;-61
2023/08/28 07:38:33;;;;;;;0.25;0.20;;;;;;;;;;5058455;28;20044;-62
2023/08/28 07:40:59;;;;;;;0.25;0.25;;;;;;;;;;5058272;28;20471;-62
2023/08/28 07:43:25;;;;;;;0.20;0.20;;;;;;;;;;5058702;28;20051;-61
2023/08/28 07:45:51;;;;;;;0.30;0.30;;;;;;;;;;5057149;28;20036;-62
2023/08/28 07:48:17;;;;;;;0.47;0.20;;;;;;;;;;5053182;28;20037;-62
2023/08/28 07:50:45;;;;;;;0.55;0.30;;;;;;;;;;5056544;28;20037;-62
2023/08/28 07:53:11;;;;;;;0.20;0.20;;;;;;;;;;5057555;28;20120;-62
2023/08/28 07:55:37;;;;;;;0.10;0.10;;;;;;;;;;5058877;28;20064;-62
2023/08/28 07:58:04;;;;;;;0.20;0.15;;;;;;;;;;5062949;28;20102;-62
2023/08/28 08:00:34;;;;;;;0.03;0.03;;;;;;;;;;5059781;28;20040;-61
2023/08/28 08:03:03;;;;;;;0.30;0.30;;;;;;;;;;5067400;28;20058;-62
2023/08/28 08:05:30;;;;;;;0.47;0.30;;;;;;;;;;5068019;28;20052;-63
2023/08/28 08:07:56;;;;;;;0.20;0.20;;;;;;;;;;5067034;28;20039;-59
2023/08/28 08:10:22;;;;;;;0.30;0.30;;;;;;;;;;5057207;28;20053;-63
2023/08/28 08:12:48;;;;;;;0.55;0.22;;;;;;;;;;5062894;28;20401;-63
2023/08/28 08:15:14;;;;;;;0.10;0.10;;;;;;;;;;5064053;28;20052;-63
2023/08/28 08:17:40;;;;;;;0.20;0.20;;;;;;;;;;5067357;28;20049;-63
2023/08/28 08:20:10;;;;;;;0.30;0.05;;;;;;;;;;5064907;28;20048;-63
2023/08/28 08:22:36;;;;;;;0.20;0.20;;;;;;;;;;5067668;28;20119;-63
2023/08/28 08:25:02;;;;;;;1.33;0.40;;;;;;;;;;5061145;28;20044;-63
2023/08/28 08:27:28;;;;;;;0.10;0.10;;;;;;;;;;5063828;28;20036;-63
2023/08/28 08:29:54;;;;;;;0.47;0.25;;;;;;;;;;5063649;28;20558;-63
2023/08/28 08:32:20;;;;;;;0.30;0.20;;;;;;;;;;5060831;28;20369;-63
2023/08/28 08:34:46;;;;;;;0.40;0.20;;;;;;;;;;5064639;28;20044;-63
2023/08/28 08:37:13;;;;;;;0.40;0.30;;;;;;;;;;5062895;28;20464;-63
2023/08/28 08:39:39;;;;;;;0.30;0.20;;;;;;;;;;5063306;28;20496;-63
2023/08/28 08:42:05;;;;;;;0.30;0.25;;;;;;;;;;5063973;28;20044;-63
2023/08/28 08:44:31;;;;;;;0.45;0.30;;;;;;;;;;5060716;28;20057;-64
2023/08/28 08:46:57;;;;;;;0.73;0.28;;;;;;;;;;5063919;28;20062;-64
2023/08/28 08:49:26;;;;;;;0.32;0.28;;;;;;;;;;5061376;28;20048;-64
2023/08/28 08:51:54;;;;;;;0.20;0.20;;;;;;;;;;5055955;28;20373;-64
2023/08/28 08:54:30;;;;;;;0.20;0.10;;;;;;;;;;5060191;28;20064;-64
2023/08/28 08:57:02;;;;;;;0.25;0.20;;;;;;;;;;5066113;28;20068;-64
2023/08/28 08:59:29;;;;;;;0.10;0.10;;;;;;;;;;5058042;28;20036;-64
2023/08/28 09:01:55;;;;;;;0.10;0.10;;;;;;;;;;5060160;28;20048;-65
2023/08/28 09:04:22;;;;;;;0.10;0.10;;;;;;;;;;5056564;28;20098;-64
2023/08/28 09:06:49;;;;;;;0.17;0.17;;;;;;;;;;5065651;28;20044;-64
2023/08/28 09:09:15;;;;;;;0.20;0.20;;;;;;;;;;5064902;28;20098;-64
2023/08/28 09:11:45;;;;;;;0.20;0.20;;;;;;;;;;5063389;28;20049;-64
2023/08/28 09:14:11;;;;;;;0.28;0.28;;;;;;;;;;5062613;28;20076;-65
2023/08/28 09:16:37;;;;;;;0.60;0.40;;;;;;;;;;5063351;28;20126;-64
2023/08/28 09:19:03;;;;;;;0.20;0.20;;;;;;;;;;5063830;28;20048;-64
2023/08/28 09:21:34;;;;;;;0.30;0.22;;;;;;;;;;5061144;28;20048;-65
2023/08/28 09:24:00;;;;;;;1.15;0.30;;;;;;;;;;5061295;28;20039;-64
2023/08/28 09:26:26;;;;;;;0.20;0.17;;;;;;;;;;5066181;28;20036;-64
2023/08/28 09:28:59;;;;;;;0.20;0.20;;;;;;;;;;5063852;28;20028;-64
2023/08/28 09:31:28;;;;;;;0.17;0.10;;;;;;;;;;5058860;28;20036;-64
2023/08/28 09:33:54;;;;;;;0.10;0.10;;;;;;;;;;5062463;28;20518;-64
2023/08/28 09:36:21;;;;;;;0.10;0.10;;;;;;;;;;5060872;28;20140;-64
2023/08/28 09:38:47;;;;;;;0.22;0.20;;;;;;;;;;5057813;28;20029;-64
2023/08/28 09:41:13;;;;;;;0.30;0.30;;;;;;;;;;5057942;28;20087;-64
2023/08/28 09:43:39;;;;;;;0.38;0.38;;;;;;;;;;5061237;28;20422;-65
2023/08/28 09:46:05;;;;;;;0.20;0.20;;;;;;;;;;5060110;28;20762;-62
2023/08/28 09:48:32;;;;;;;0.30;0.30;;;;;;;;;;5055328;28;20037;-62
2023/08/28 09:51:02;;;;;;;0.20;0.20;;;;;;;;;;5053675;28;20683;-62
2023/08/28 09:53:29;;;;;;;0.20;0.20;;;;;;;;;;5052678;28;20046;-62
2023/08/28 09:55:55;;;;;;;0.20;0.20;;;;;;;;;;5062229;28;20595;-63
2023/08/28 09:58:25;;;;;;;0.28;0.28;;;;;;;;;;5055738;28;20502;-63
2023/08/28 10:00:52;;;;;;;0.30;0.30;;;;;;;;;;5059970;28;20098;-63
2023/08/28 10:03:19;;;;;;;0.20;0.20;;;;;;;;;;5054863;28;20085;-61
2023/08/28 10:05:46;;;;;;;0.20;0.20;;;;;;;;;;5061354;28;20127;-62
2023/08/28 10:08:13;;;;;;;0.15;0.15;;;;;;;;;;5057815;28;20393;-62
2023/08/28 10:10:41;;;;;;;0.20;0.20;;;;;;;;;;5060001;28;20497;-62
2023/08/28 10:13:09;;;;;;;0.10;0.10;;;;;;;;;;5059705;28;20626;-62
2023/08/28 10:15:39;;;;;;;0.30;0.20;;;;;;;;;;5057499;28;20029;-62
2023/08/28 10:18:08;;;;;;;0.20;0.20;;;;;;;;;;5061644;28;20036;-63
2023/08/28 10:20:34;;;;;;;0.20;0.20;;;;;;;;;;5061093;28;20467;-63
2023/08/28 10:23:01;;;;;;;0.20;0.10;;;;;;;;;;5051739;28;20048;-63
2023/08/28 10:25:29;;;;;;;0.20;0.20;;;;;;;;;;5057155;28;20040;-63
2023/08/28 10:27:57;;;;;;;0.10;0.10;;;;;;;;;;5057230;28;20045;-63
2023/08/28 10:30:23;;;;;;;0.20;0.20;;;;;;;;;;5065768;28;20041;-62
2023/08/28 10:32:50;;;;;;;0.45;0.35;;;;;;;;;;5063550;28;20629;-63
2023/08/28 10:35:17;;;;;;;1.38;0.30;;;;;;;;;;5060267;28;20071;-63
2023/08/28 10:37:43;;;;;;;0.22;0.20;;;;;;;;;;5062399;28;20044;-63
2023/08/28 10:40:10;;;;;;;0.40;0.40;;;;;;;;;;5061326;28;20033;-61
2023/08/28 10:42:37;;;;;;;1.05;0.60;;;;;;;;;;5067707;28;20110;-61
2023/08/28 10:45:03;;;;;;;0.40;0.32;;;;;;;;;;5068335;28;20053;-62
2023/08/28 10:47:29;;;;;;;0.50;0.50;;;;;;;;;;5068100;28;20040;-62
2023/08/28 10:49:58;;;;;;;1.67;0.65;;;;;;;;;;5059152;28;20033;-61
2023/08/28 10:52:24;;;;;;;1.30;0.50;;;;;;;;;;5068539;28;20051;-61
2023/08/28 10:54:50;;;;;;;0.40;0.40;;;;;;;;;;5068619;28;20516;-60
2023/08/28 10:57:23;;;;;;;0.43;0.40;;;;;;;;;;5068208;28;20052;-61
2023/08/28 10:59:49;;;;;;;0.45;0.45;;;;;;;;;;5064810;28;20040;-61
2023/08/28 11:02:16;;;;;;;0.30;0.30;;;;;;;;;;5067888;28;20051;-60
2023/08/28 11:04:42;;;;;;;0.50;0.30;;;;;;;;;;5063764;28;20038;-60
2023/08/28 11:07:20;;;;;;;0.25;0.20;;;;;;;;;;5061954;28;20052;-61
2023/08/28 11:09:46;;;;;;;0.40;0.30;;;;;;;;;;5063726;28;20048;-60
2023/08/28 11:12:12;;;;;;;0.65;0.20;;;;;;;;;;5060756;28;20040;-61
2023/08/28 11:14:43;;;;;;;0.30;0.30;;;;;;;;;;5064890;28;20050;-60
2023/08/28 11:17:09;;;;;;;0.63;0.30;;;;;;;;;;5063714;28;20040;-60
2023/08/28 11:19:54;;;;;;;0.20;0.20;;;;;;;;;;5065762;28;20274;-61
2023/08/28 11:22:29;;;;;;;0.20;0.20;;;;;;;;;;5063608;28;20044;-61
2023/08/28 11:24:55;;;;;;;0.35;0.20;;;;;;;;;;5060033;28;20032;-61
2023/08/28 11:27:33;;;;;;;0.30;0.30;;;;;;;;;;5060577;28;20492;-61
2023/08/28 11:30:00;;;;;;;0.20;0.20;;;;;;;;;;5060961;28;20044;-61
2023/08/28 11:32:26;;;;;;;0.20;0.20;;;;;;;;;;5062254;28;20082;-61
2023/08/28 11:34:52;;;;;;;0.50;0.40;;;;;;;;;;5066239;28;20405;-61
2023/08/28 11:37:35;;;;;;;0.30;0.30;;;;;;;;;;5062861;28;20045;-61
2023/08/28 11:40:05;;;;;;;0.85;0.40;;;;;;;;;;5065394;28;20040;-61
2023/08/28 11:42:31;;;;;;;0.30;0.30;;;;;;;;;;5065552;28;21038;-61
2023/08/28 11:44:57;;;;;;;0.28;0.28;;;;;;;;;;5064406;28;20036;-61
2023/08/28 11:47:24;;;;;;;0.47;0.30;;;;;;;;;;5063964;28;20033;-61
2023/08/28 11:49:51;;;;;;;0.75;0.30;;;;;;;;;;5059630;28;20041;-64
2023/08/28 11:52:17;;;;;;;0.30;0.30;;;;;;;;;;5060648;28;20040;-62
2023/08/28 11:54:43;;;;;;;0.30;0.30;;;;;;;;;;5056952;28;20056;-63
2023/08/28 11:57:09;;;;;;;0.30;0.30;;;;;;;;;;5059315;28;20290;-64
2023/08/28 11:59:36;;;;;;;0.38;0.25;;;;;;;;;;5055390;28;20040;-62
2023/08/28 12:02:05;;;;;;;0.20;0.20;;;;;;;;;;5066368;28;20408;-62
2023/08/28 12:04:38;;;;;;;0.55;0.20;;;;;;;;;;5057627;28;20037;-62
2023/08/28 12:07:07;;;;;;;0.20;0.20;;;;;;;;;;5053284;28;20099;-62
2023/08/28 12:09:33;;;;;;;0.20;0.20;;;;;;;;;;5058007;28;20156;-62
2023/08/28 12:12:01;;;;;;;0.20;0.20;;;;;;;;;;5060305;28;20573;-62
2023/08/28 12:14:27;;;;;;;0.25;0.22;;;;;;;;;;5061708;28;20391;-62
2023/08/28 12:17:02;;;;;;;0.40;0.20;;;;;;;;;;5055950;28;20041;-62
2023/08/28 12:19:28;;;;;;;0.20;0.20;;;;;;;;;;5054763;28;20451;-62
2023/08/28 12:22:05;;;;;;;0.30;0.20;;;;;;;;;;5055669;28;20050;-62
2023/08/28 12:24:31;;;;;;;0.40;0.30;;;;;;;;;;5062461;28;20040;-62
2023/08/28 12:26:58;;;;;;;0.20;0.20;;;;;;;;;;5064427;28;20075;-62
2023/08/28 12:29:25;;;;;;;0.70;0.30;;;;;;;;;;5059533;28;20494;-62
2023/08/28 12:31:51;;;;;;;0.45;0.20;;;;;;;;;;5059691;28;20044;-62
2023/08/28 12:34:18;;;;;;;0.25;0.25;;;;;;;;;;5059892;28;20123;-62
2023/08/28 12:36:47;;;;;;;0.45;0.20;;;;;;;;;;5059578;28;20054;-62
2023/08/28 12:39:19;;;;;;;0.57;0.22;;;;;;;;;;5062211;28;20246;-62
2023/08/28 12:41:50;;;;;;;0.30;0.30;;;;;;;;;;5057088;28;20044;-62
2023/08/28 12:44:16;;;;;;;0.10;0.10;;;;;;;;;;5060375;28;20044;-62
2023/08/28 12:46:42;;;;;;;0.30;0.30;;;;;;;;;;5059495;28;20032;-62
2023/08/28 12:49:10;;;;;;;0.43;0.28;;;;;;;;;;5060168;28;20226;-63
2023/08/28 12:51:36;;;;;;;0.38;0.38;;;;;;;;;;5059530;28;20048;-63
2023/08/28 12:54:03;;;;;;;0.30;0.30;;;;;;;;;;5063951;28;20378;-62
2023/08/28 12:56:29;;;;;;;0.40;0.40;;;;;;;;;;5058305;28;20501;-62
2023/08/28 12:58:55;;;;;;;0.73;0.40;;;;;;;;;;5055653;28;20037;-62
2023/08/28 13:01:21;;;;;;;0.88;0.30;;;;;;;;;;5056161;28;20055;-62
2023/08/28 13:03:47;;;;;;;0.30;0.30;;;;;;;;;;5054130;28;20051;-62
2023/08/28 13:06:13;;;;;;;0.30;0.30;;;;;;;;;;5054915;28;20120;-62
2023/08/28 13:08:39;;;;;;;0.50;0.50;;;;;;;;;;5050515;28;20479;-62
2023/08/28 13:11:05;;;;;;;1.05;0.50;;;;;;;;;;5058434;28;20047;-62
2023/08/28 13:13:31;;;;;;;1.15;0.55;;;;;;;;;;5054867;28;20044;-62
2023/08/28 13:15:57;;;;;;;2.30;0.65;;;;;;;;;;5059020;28;20040;-62
2023/08/28 13:18:23;;;;;;;0.20;0.20;;;;;;;;;;5054885;28;20048;-62
2023/08/28 13:20:49;;;;;;;1.35;0.52;;;;;;;;;;5053907;28;20041;-62
2023/08/28 13:23:15;;;;;;;0.75;0.47;;;;;;;;;;5050975;28;20044;-62
2023/08/28 13:25:41;;;;;;;0.82;0.50;;;;;;;;;;5057717;28;20041;-62
2023/08/28 13:28:07;;;;;;;0.38;0.38;;;;;;;;;;5050373;28;20052;-62
2023/08/28 13:30:34;;;;;;;0.52;0.40;;;;;;;;;;5050924;28;20048;-62
2023/08/28 13:33:04;;;;;;;0.50;0.50;;;;;;;;;;5052575;28;20040;-62
2023/08/28 13:35:31;;;;;;;0.93;0.25;;;;;;;;;;5052554;28;20048;-62
2023/08/28 13:37:57;;;;;;;0.50;0.40;;;;;;;;;;5054831;28;20048;-62
2023/08/28 13:40:23;;;;;;;0.57;0.30;;;;;;;;;;5050259;28;20592;-62
2023/08/28 13:42:49;;;;;;;0.40;0.30;;;;;;;;;;5051720;28;20563;-62
2023/08/28 13:45:15;;;;;;;0.95;0.40;;;;;;;;;;5051251;28;20037;-62
2023/08/28 13:47:41;;;;;;;0.43;0.40;;;;;;;;;;5054176;28;20115;-58
2023/08/28 13:50:07;;;;;;;0.22;0.22;;;;;;;;;;5058672;28;20158;-55
2023/08/28 13:52:33;;;;;;;0.20;0.20;;;;;;;;;;5057899;28;20105;-54
2023/08/28 13:55:04;;;;;;;0.40;0.40;;;;;;;;;;5060766;28;20060;-54
2023/08/28 13:57:31;;;;;;;1.42;0.40;;;;;;;;;;5058346;28;20528;-54
2023/08/28 13:59:59;;;;;;;0.30;0.30;;;;;;;;;;5056034;28;20139;-54
2023/08/28 14:02:25;;;;;;;0.32;0.30;;;;;;;;;;5062507;28;20399;-55
2023/08/28 14:04:51;;;;;;;0.20;0.20;;;;;;;;;;5069431;28;20391;-55
2023/08/28 14:07:17;;;;;;;0.25;0.25;;;;;;;;;;5067271;28;20041;-56
2023/08/28 14:09:43;;;;;;;0.52;0.50;;;;;;;;;;5053292;28;20536;-56
2023/08/28 14:12:09;;;;;;;0.28;0.28;;;;;;;;;;5058271;28;20047;-56
2023/08/28 14:14:35;;;;;;;0.20;0.20;;;;;;;;;;5058083;28;20074;-56
2023/08/28 14:17:02;;;;;;;0.63;0.30;;;;;;;;;;5065349;28;20428;-56
2023/08/28 14:19:28;;;;;;;0.20;0.20;;;;;;;;;;5062549;28;20053;-56
2023/08/28 14:21:54;;;;;;;0.15;0.15;;;;;;;;;;5061925;28;20051;-56
2023/08/28 14:24:20;;;;;;;0.20;0.20;;;;;;;;;;5065878;28;20036;-56
2023/08/28 14:26:47;;;;;;;0.30;0.20;;;;;;;;;;5065811;28;20051;-56
2023/08/28 14:29:13;;;;;;;0.28;0.28;;;;;;;;;;5070545;28;20455;-56
2023/08/28 14:31:39;;;;;;;0.10;0.10;;;;;;;;;;5058742;28;20715;-56
2023/08/28 14:34:05;;;;;;;0.38;0.20;;;;;;;;;;5061603;28;20098;-56
2023/08/28 14:36:31;;;;;;;0.20;0.20;;;;;;;;;;5063400;28;20032;-56
2023/08/28 14:38:58;;;;;;;0.10;0.10;;;;;;;;;;5066170;28;20040;-56
2023/08/28 14:41:24;;;;;;;0.38;0.30;;;;;;;;;;5062665;28;20056;-56